Time;durP1;ratioP1;P1;durP2;ratioP2;P2;SDS_P1;SDS_P2;PMS_P1;PMS_P2;Temp;Humidity;BMP_temperature;BMP_pressure;BME280_temperature;BME280_humidity;BME280_pressure;Samples;Min_cycle;Max_cycle;Signal;HPM_P1;HPM_P2
2023/08/03 00:02:07;;;;;;;8.10;2.10;;;;;;;22.05;62.61;98871.50;5053431;28;20183;-64
2023/08/03 00:04:32;;;;;;;8.47;2.17;;;;;;;22.04;62.49;98875.63;5047695;28;20207;-64
2023/08/03 00:06:58;;;;;;;8.10;1.90;;;;;;;22.03;62.22;98874.81;5034913;28;20210;-64
2023/08/03 00:09:24;;;;;;;8.17;2.23;;;;;;;22.03;61.90;98871.13;5032552;28;20207;-64
2023/08/03 00:11:50;;;;;;;7.60;1.70;;;;;;;22.04;61.76;98867.00;5032373;28;20184;-64
2023/08/03 00:14:15;;;;;;;7.30;2.03;;;;;;;22.03;62.14;98871.94;5047363;28;20426;-63
2023/08/03 00:16:41;;;;;;;11.50;1.97;;;;;;;22.02;61.80;98863.78;5047056;28;20164;-63
2023/08/03 00:19:06;;;;;;;7.50;1.87;;;;;;;22.04;61.82;98869.88;5041300;28;20188;-63
2023/08/03 00:21:31;;;;;;;7.27;1.87;;;;;;;22.03;61.83;98877.69;5029509;28;20192;-63
2023/08/03 00:23:57;;;;;;;10.23;2.70;;;;;;;22.02;61.50;98873.19;5025623;28;20255;-64
2023/08/03 00:26:22;;;;;;;13.97;2.37;;;;;;;22.02;62.16;98875.28;5025338;28;20238;-63
2023/08/03 00:28:48;;;;;;;8.10;1.90;;;;;;;22.01;61.83;98868.69;5028546;28;20199;-63
2023/08/03 00:31:13;;;;;;;7.10;2.13;;;;;;;22.01;62.03;98871.56;5034297;28;20195;-64
2023/08/03 00:33:39;;;;;;;9.77;2.20;;;;;;;22.01;62.27;98862.94;5038681;28;20186;-64
2023/08/03 00:36:04;;;;;;;6.00;1.40;;;;;;;22.02;61.80;98866.66;5040960;28;20624;-63
2023/08/03 00:38:30;;;;;;;11.73;2.30;;;;;;;21.99;61.71;98874.09;5034762;28;20611;-64
2023/08/03 00:40:55;;;;;;;5.73;2.10;;;;;;;22.00;62.36;98878.56;5037565;28;20509;-63
2023/08/03 00:43:21;;;;;;;13.20;2.77;;;;;;;21.99;62.08;98874.09;5027133;28;20846;-63
2023/08/03 00:45:46;;;;;;;7.50;2.00;;;;;;;21.98;61.54;98875.31;5029708;28;20582;-63
2023/08/03 00:48:11;;;;;;;9.93;1.70;;;;;;;22.00;62.08;98872.81;5034885;28;20207;-64
2023/08/03 00:50:37;;;;;;;7.83;2.10;;;;;;;21.99;61.55;98876.97;5045619;28;20557;-64
2023/08/03 00:53:03;;;;;;;9.67;1.77;;;;;;;21.99;61.93;98874.09;5031730;28;20223;-63
2023/08/03 00:55:28;;;;;;;12.30;2.33;;;;;;;21.99;61.08;98876.97;5039042;28;20180;-63
2023/08/03 00:57:54;;;;;;;11.43;2.20;;;;;;;21.99;61.76;98876.97;5048532;28;20210;-63
2023/08/03 01:00:37;;;;;;;7.67;1.93;;;;;;;22.00;62.17;98883.50;5037731;28;20195;-64
2023/08/03 01:03:03;;;;;;;6.53;2.17;;;;;;;21.99;62.07;98876.97;5030475;28;20663;-63
2023/08/03 01:05:29;;;;;;;5.53;1.70;;;;;;;21.99;62.18;98887.63;5028218;28;20455;-63
2023/08/03 01:07:55;;;;;;;7.17;1.60;;;;;;;21.99;61.99;98891.31;5032100;28;20180;-64
2023/08/03 01:10:20;;;;;;;6.37;1.50;;;;;;;22.00;62.19;98900.75;5047835;28;20620;-63
2023/08/03 01:12:46;;;;;;;6.73;1.70;;;;;;;21.99;62.09;98899.94;5026152;28;20438;-63
2023/08/03 01:15:11;;;;;;;7.40;1.23;;;;;;;21.99;62.81;98905.69;5028107;28;20181;-63
2023/08/03 01:17:37;;;;;;;6.37;1.67;;;;;;;21.99;62.75;98896.25;5031814;28;20195;-64
2023/08/03 01:20:02;;;;;;;8.40;2.40;;;;;;;21.99;62.35;98907.75;5034702;28;20189;-64
2023/08/03 01:22:28;;;;;;;6.73;1.70;;;;;;;21.98;62.82;98904.06;5028092;28;20229;-63
2023/08/03 01:24:53;;;;;;;6.17;1.50;;;;;;;21.98;62.58;98914.75;5012439;28;20263;-63
2023/08/03 01:27:19;;;;;;;7.80;2.30;;;;;;;21.97;62.40;98916.81;5028959;28;20261;-63
2023/08/03 01:29:44;;;;;;;7.10;1.60;;;;;;;21.98;62.66;98918.41;5038625;28;20180;-63
2023/08/03 01:32:10;;;;;;;8.00;1.93;;;;;;;21.97;62.54;98922.53;5064220;28;20703;-63
2023/08/03 01:34:35;;;;;;;6.87;1.60;;;;;;;21.97;62.38;98918.88;5060047;28;20624;-64
2023/08/03 01:37:00;;;;;;;7.47;1.73;;;;;;;21.95;62.52;98922.19;5037599;28;20906;-63
2023/08/03 01:39:26;;;;;;;7.70;2.17;;;;;;;21.96;62.68;98925.84;5036919;28;20208;-63
2023/08/03 01:41:51;;;;;;;6.97;2.40;;;;;;;21.97;62.68;98930.38;5034468;28;20242;-63
2023/08/03 01:44:23;;;;;;;5.60;1.90;;;;;;;21.96;62.86;98938.16;5029675;28;20206;-63
2023/08/03 01:46:49;;;;;;;7.90;1.53;;;;;;;21.96;62.72;98941.03;5026726;28;20200;-64
2023/08/03 01:49:14;;;;;;;7.30;1.80;;;;;;;21.95;61.61;98945.19;5027690;28;20517;-63
2023/08/03 01:51:40;;;;;;;7.00;2.00;;;;;;;21.95;61.29;98945.19;5027030;28;20196;-63
2023/08/03 01:54:06;;;;;;;7.97;1.50;;;;;;;21.95;61.38;98939.44;5030902;28;20659;-63
2023/08/03 01:56:31;;;;;;;7.80;2.00;;;;;;;21.93;60.50;98953.41;5033337;28;20597;-63
2023/08/03 01:58:57;;;;;;;6.27;1.60;;;;;;;21.94;60.61;98940.69;5029203;28;20195;-63
2023/08/03 02:01:23;;;;;;;6.90;1.70;;;;;;;21.94;61.03;98957.09;5030959;28;20274;-63
2023/08/03 02:03:48;;;;;;;9.10;1.90;;;;;;;21.93;60.69;98959.16;5042146;28;20216;-63
2023/08/03 02:06:13;;;;;;;6.97;2.70;;;;;;;21.93;60.57;98982.13;5056025;28;20195;-64
2023/08/03 02:08:39;;;;;;;6.30;1.67;;;;;;;21.93;60.44;98978.47;5060964;28;20195;-63
2023/08/03 02:11:04;;;;;;;6.10;2.47;;;;;;;21.92;60.09;98983.41;5034266;28;20195;-63
2023/08/03 02:13:30;;;;;;;4.53;1.40;;;;;;;21.92;60.30;98973.97;5035302;28;20188;-63
2023/08/03 02:15:55;;;;;;;9.13;1.40;;;;;;;21.91;60.34;98966.59;5038049;28;20203;-63
2023/08/03 02:18:21;;;;;;;3.77;1.20;;;;;;;21.91;60.00;98978.91;5037158;28;20219;-63
2023/08/03 02:20:46;;;;;;;5.90;1.50;;;;;;;21.91;60.26;98978.91;5030876;28;20195;-63
2023/08/03 02:23:11;;;;;;;6.63;1.17;;;;;;;21.90;60.22;98971.53;5044846;28;20187;-63
2023/08/03 02:25:37;;;;;;;6.43;1.33;;;;;;;21.90;60.18;98974.41;5041494;28;20211;-63
2023/08/03 02:28:02;;;;;;;8.83;1.80;;;;;;;21.90;60.25;98964.97;5056428;28;20192;-63
2023/08/03 02:30:28;;;;;;;5.20;1.40;;;;;;;21.91;60.75;98973.16;5052873;28;20192;-63
2023/08/03 02:32:53;;;;;;;4.07;1.40;;;;;;;21.89;61.01;98957.59;5051080;28;21724;-63
2023/08/03 02:35:19;;;;;;;5.23;1.30;;;;;;;21.89;60.20;98967.03;5036707;28;20543;-63
2023/08/03 02:37:44;;;;;;;9.53;1.73;;;;;;;21.89;60.65;98964.16;5028330;28;20185;-63
2023/08/03 02:40:10;;;;;;;4.97;1.40;;;;;;;21.90;60.33;98964.97;5041296;28;20184;-63
2023/08/03 02:42:37;;;;;;;4.67;1.53;;;;;;;21.89;60.91;98975.66;5034442;28;20180;-63
2023/08/03 02:45:02;;;;;;;6.10;1.40;;;;;;;21.88;60.41;98974.00;5046784;28;20211;-63
2023/08/03 02:47:28;;;;;;;6.60;1.77;;;;;;;21.88;60.69;98974.00;5049665;28;20430;-63
2023/08/03 02:49:53;;;;;;;4.60;1.10;;;;;;;21.88;60.78;98967.47;5040391;28;20240;-63
2023/08/03 02:52:19;;;;;;;5.23;1.50;;;;;;;21.88;60.48;98965.41;5030220;28;20192;-64
2023/08/03 02:54:44;;;;;;;8.73;2.03;;;;;;;21.88;60.57;98961.72;5032789;28;20173;-63
2023/08/03 02:57:10;;;;;;;6.20;1.37;;;;;;;21.87;61.04;98960.91;5045763;28;20192;-63
2023/08/03 02:59:35;;;;;;;8.10;1.20;;;;;;;21.87;60.72;98971.59;5030301;28;20234;-64
2023/08/03 03:02:00;;;;;;;5.10;1.20;;;;;;;21.88;60.69;98973.22;5033230;28;20195;-63
2023/08/03 03:04:26;;;;;;;11.97;2.10;;;;;;;21.88;60.67;98976.88;5036331;28;20207;-63
2023/08/03 03:06:52;;;;;;;7.37;1.57;;;;;;;21.87;60.45;98981.00;5048003;28;20172;-63
2023/08/03 03:09:17;;;;;;;5.90;1.30;;;;;;;21.88;60.86;98970.34;5035348;28;20188;-64
2023/08/03 03:11:43;;;;;;;5.83;1.20;;;;;;;21.87;59.91;98981.00;5039161;28;20183;-64
2023/08/03 03:14:08;;;;;;;11.73;2.03;;;;;;;21.87;60.11;98977.34;5033836;28;20181;-63
2023/08/03 03:16:34;;;;;;;6.10;1.63;;;;;;;21.86;60.80;98979.41;5032146;28;20192;-63
2023/08/03 03:18:59;;;;;;;5.20;1.50;;;;;;;21.87;60.19;98983.09;5034302;28;20188;-63
2023/08/03 03:21:24;;;;;;;9.10;1.60;;;;;;;21.87;60.78;98994.59;5045367;28;20189;-64
2023/08/03 03:23:50;;;;;;;4.90;1.20;;;;;;;21.85;60.69;98995.03;5044252;28;20263;-63
2023/08/03 03:26:15;;;;;;;5.07;1.40;;;;;;;21.85;60.17;99009.38;5028225;28;20195;-63
2023/08/03 03:28:41;;;;;;;5.40;1.30;;;;;;;21.86;59.50;99007.31;5035942;28;20188;-63
2023/08/03 03:31:07;;;;;;;4.07;1.30;;;;;;;21.85;60.00;99009.38;5033615;28;20183;-63
2023/08/03 03:33:32;;;;;;;5.37;1.30;;;;;;;21.84;59.31;99004.88;5028512;28;20246;-64
2023/08/03 03:35:58;;;;;;;5.17;1.60;;;;;;;21.84;59.69;99001.19;5031100;28;20195;-64
2023/08/03 03:38:23;;;;;;;5.43;1.37;;;;;;;21.84;60.00;99007.75;5034577;28;20196;-64
2023/08/03 03:40:48;;;;;;;9.57;1.43;;;;;;;21.83;59.44;99011.88;5031222;28;20228;-63
2023/08/03 03:43:14;;;;;;;5.97;1.33;;;;;;;21.83;59.62;99031.97;5045106;28;20184;-63
2023/08/03 03:45:39;;;;;;;5.13;1.63;;;;;;;21.83;58.86;99034.06;5043606;28;20211;-63
2023/08/03 03:48:05;;;;;;;4.93;1.47;;;;;;;21.83;59.61;99036.94;5045916;28;20241;-63
2023/08/03 03:50:30;;;;;;;6.80;1.70;;;;;;;21.83;60.16;99039.81;5035477;28;20223;-63
2023/08/03 03:52:56;;;;;;;5.47;1.40;;;;;;;21.83;59.02;99037.72;5028343;28;20184;-63
2023/08/03 03:55:21;;;;;;;8.20;2.60;;;;;;;21.83;59.69;99039.81;5041945;28;20187;-63
2023/08/03 03:57:46;;;;;;;3.97;1.30;;;;;;;21.82;60.04;99038.97;5030142;28;20181;-63
2023/08/03 04:00:12;;;;;;;6.47;1.33;;;;;;;21.81;60.09;99040.22;5030901;28;20188;-63
2023/08/03 04:02:37;;;;;;;4.03;1.10;;;;;;;21.82;60.34;99052.53;5031327;28;20191;-64
2023/08/03 04:05:03;;;;;;;4.63;1.33;;;;;;;21.82;60.34;99050.47;5052471;28;20248;-63
2023/08/03 04:07:28;;;;;;;3.63;1.10;;;;;;;21.82;59.65;99061.16;5067479;28;20235;-64
2023/08/03 04:09:54;;;;;;;5.13;1.60;;;;;;;21.83;59.93;99059.91;5032505;28;20867;-64
2023/08/03 04:12:19;;;;;;;7.17;1.17;;;;;;;21.82;59.79;99061.97;5028847;28;20959;-64
2023/08/03 04:14:45;;;;;;;3.40;1.37;;;;;;;21.82;60.78;99053.34;5038352;28;20812;-64
2023/08/03 04:17:10;;;;;;;5.40;1.27;;;;;;;21.81;60.71;99057.47;5048016;28;20185;-64
2023/08/03 04:19:36;;;;;;;4.33;1.47;;;;;;;21.81;60.82;99062.38;5030106;28;20176;-63
2023/08/03 04:22:01;;;;;;;6.73;1.60;;;;;;;21.82;60.47;99052.53;5028574;28;20206;-64
2023/08/03 04:24:28;;;;;;;4.40;1.20;;;;;;;21.82;60.85;99061.16;5031163;28;20195;-63
2023/08/03 04:26:54;;;;;;;6.10;0.90;;;;;;;21.80;60.25;99037.78;5029804;28;20176;-63
2023/08/03 04:29:19;;;;;;;4.70;1.60;;;;;;;21.80;60.49;99047.22;5035817;28;20441;-63
2023/08/03 04:31:44;;;;;;;4.50;1.03;;;;;;;21.81;61.12;99054.59;5033717;28;20187;-64
2023/08/03 04:34:10;;;;;;;6.67;1.30;;;;;;;21.81;60.27;99059.50;5039429;28;20211;-63
2023/08/03 04:36:35;;;;;;;6.47;1.47;;;;;;;21.81;59.78;99066.09;5039444;28;20249;-63
2023/08/03 04:39:01;;;;;;;6.00;1.27;;;;;;;21.81;60.58;99059.50;5045559;28;20192;-64
2023/08/03 04:41:26;;;;;;;5.60;1.37;;;;;;;21.80;60.79;99058.72;5033119;28;20195;-64
2023/08/03 04:43:52;;;;;;;6.87;1.60;;;;;;;21.80;60.53;99064.47;5067775;28;20204;-63
2023/08/03 04:46:17;;;;;;;6.07;1.30;;;;;;;21.80;60.86;99086.63;5040068;28;20213;-64
2023/08/03 04:48:42;;;;;;;7.40;1.50;;;;;;;21.80;60.14;99069.38;5038771;28;20579;-63
2023/08/03 04:51:08;;;;;;;4.07;1.30;;;;;;;21.80;60.23;99087.44;5031277;28;20817;-63
2023/08/03 04:53:34;;;;;;;6.17;1.50;;;;;;;21.80;60.43;99089.50;5028693;28;20260;-64
2023/08/03 04:55:59;;;;;;;5.70;1.20;;;;;;;21.79;60.80;99091.56;5029025;28;20835;-64
2023/08/03 04:58:25;;;;;;;4.03;1.13;;;;;;;21.78;60.58;99089.94;5030019;28;20556;-64
2023/08/03 05:00:50;;;;;;;4.53;1.10;;;;;;;21.80;60.54;99086.63;5030445;28;20606;-63
2023/08/03 05:03:16;;;;;;;6.50;1.30;;;;;;;21.78;60.91;99107.16;5040985;28;20535;-63
2023/08/03 05:05:41;;;;;;;3.30;1.43;;;;;;;21.78;60.71;99095.66;5036469;28;20690;-63
2023/08/03 05:08:06;;;;;;;6.63;1.40;;;;;;;21.79;60.75;99093.63;5040203;28;20191;-63
2023/08/03 05:10:32;;;;;;;6.30;1.50;;;;;;;21.79;61.00;99108.00;5036044;28;20268;-64
2023/08/03 05:12:57;;;;;;;5.43;1.30;;;;;;;21.79;60.98;99110.88;5035553;28;20196;-63
2023/08/03 05:15:23;;;;;;;4.57;1.20;;;;;;;21.80;61.11;99106.75;5028577;28;20184;-63
2023/08/03 05:17:49;;;;;;;6.30;1.50;;;;;;;21.91;60.49;99113.97;5038724;28;20207;-63
2023/08/03 05:20:15;;;;;;;8.73;1.43;;;;;;;22.12;62.10;99109.97;5027407;28;20188;-63
2023/08/03 05:22:40;;;;;;;5.50;1.90;;;;;;;22.42;64.15;99104.94;5030623;28;20553;-64
2023/08/03 05:25:06;;;;;;;10.00;2.60;;;;;;;22.59;64.61;99111.69;5034955;28;20474;-62
2023/08/03 05:27:32;;;;;;;8.47;1.87;;;;;;;22.40;64.41;99104.59;5032933;28;20207;-63
2023/08/03 05:29:58;;;;;;;5.77;1.47;;;;;;;22.32;63.37;99105.94;5039566;28;20211;-64
2023/08/03 05:32:27;;;;;;;4.30;1.63;;;;;;;22.26;62.71;99119.19;5047740;28;20179;-63
2023/08/03 05:34:52;;;;;;;7.10;1.60;;;;;;;22.23;63.05;99125.78;5042050;28;20485;-64
2023/08/03 05:37:18;;;;;;;8.03;1.30;;;;;;;22.23;62.94;99134.41;5044259;28;20461;-63
2023/08/03 05:39:43;;;;;;;4.03;1.30;;;;;;;22.21;62.79;99136.91;5046759;28;20196;-63
2023/08/03 05:42:12;;;;;;;4.47;1.20;;;;;;;22.20;62.79;99140.22;5035032;28;20184;-63
2023/08/03 05:44:38;;;;;;;9.27;1.40;;;;;;;22.23;62.95;99133.63;5043032;28;20227;-63
2023/08/03 05:47:04;;;;;;;2.87;1.00;;;;;;;22.21;62.75;99145.56;5045671;28;20454;-63
2023/08/03 05:49:30;;;;;;;4.80;1.57;;;;;;;22.19;62.26;99141.47;5013718;28;20669;-62
2023/08/03 05:51:55;;;;;;;4.77;1.23;;;;;;;22.19;62.85;99155.84;5031486;28;20426;-63
2023/08/03 05:54:21;;;;;;;4.57;1.50;;;;;;;22.19;62.91;99156.69;5035911;28;20183;-63
2023/08/03 05:56:46;;;;;;;8.67;1.30;;;;;;;22.19;62.16;99161.59;5046474;28;20518;-63
2023/08/03 05:59:34;;;;;;;5.20;1.00;;;;;;;22.19;62.61;99156.69;5034118;28;20537;-64
2023/08/03 06:01:59;;;;;;;9.83;3.00;;;;;;;22.21;62.93;99148.41;5042934;28;20176;-64
2023/08/03 06:04:25;;;;;;;5.07;1.50;;;;;;;22.23;62.90;99154.53;5048980;28;20975;-63
2023/08/03 06:06:50;;;;;;;6.30;1.60;;;;;;;22.22;62.50;99161.53;5036337;28;20636;-65
2023/08/03 06:09:16;;;;;;;3.10;1.03;;;;;;;22.26;62.15;99155.75;5049977;28;20179;-64
2023/08/03 06:11:42;;;;;;;2.63;1.07;;;;;;;22.27;62.52;99158.19;5049330;28;20183;-64
2023/08/03 06:14:11;;;;;;;4.27;0.93;;;;;;;22.26;61.88;99162.31;5040527;28;20203;-64
2023/08/03 06:16:36;;;;;;;5.80;1.60;;;;;;;22.25;62.51;99171.38;5040470;28;20211;-64
2023/08/03 06:19:02;;;;;;;5.00;1.73;;;;;;;22.22;63.11;99161.53;5045344;28;20458;-64
2023/08/03 06:21:27;;;;;;;3.60;1.23;;;;;;;22.28;62.18;99165.56;5045070;28;20198;-62
2023/08/03 06:23:57;;;;;;;3.50;1.00;;;;;;;22.26;62.60;99162.31;5047253;28;20175;-63
2023/08/03 06:26:23;;;;;;;5.27;1.73;;;;;;;22.25;62.46;99160.69;5034095;28;20188;-63
2023/08/03 06:28:53;;;;;;;8.23;2.03;;;;;;;22.27;61.95;99157.38;5050011;28;20428;-64
2023/08/03 06:31:20;;;;;;;4.10;1.03;;;;;;;22.26;62.36;99170.94;5046203;28;20185;-65
2023/08/03 06:33:46;;;;;;;4.90;1.13;;;;;;;22.22;62.79;99167.28;5036545;28;20546;-65
2023/08/03 06:36:18;;;;;;;3.10;1.07;;;;;;;22.21;62.47;99168.56;5043434;28;20426;-65
2023/08/03 06:38:44;;;;;;;3.43;1.00;;;;;;;22.16;62.74;99163.28;5034088;28;20934;-65
2023/08/03 06:41:09;;;;;;;4.47;1.27;;;;;;;22.15;62.57;99178.09;5035642;28;20441;-65
2023/08/03 06:43:35;;;;;;;4.17;0.87;;;;;;;22.12;62.26;99174.00;5034666;28;20180;-66
2023/08/03 06:46:01;;;;;;;5.03;1.93;;;;;;;22.13;61.64;99180.59;5045844;28;20196;-65
2023/08/03 06:48:26;;;;;;;5.13;1.10;;;;;;;22.12;61.55;99173.22;5048780;28;20525;-65
2023/08/03 06:50:52;;;;;;;4.23;1.00;;;;;;;22.10;61.55;99182.28;5049804;28;20226;-65
2023/08/03 06:53:17;;;;;;;6.83;1.53;;;;;;;22.08;61.58;99184.75;5049521;28;20198;-65
2023/08/03 06:55:48;;;;;;;7.10;1.57;;;;;;;22.07;61.67;99194.63;5034563;28;20177;-65
2023/08/03 06:58:17;;;;;;;5.27;1.50;;;;;;;22.06;61.16;99192.16;5030279;28;20195;-64
2023/08/03 07:00:43;;;;;;;13.20;1.70;;;;;;;22.06;61.81;99195.88;5033023;28;20423;-66
2023/08/03 07:03:08;;;;;;;16.90;2.30;;;;;;;22.06;62.46;99195.03;5032439;28;20918;-66
2023/08/03 07:05:33;;;;;;;7.53;2.43;;;;;;;22.07;62.28;99206.13;5039553;28;20275;-66
2023/08/03 07:07:59;;;;;;;6.70;1.40;;;;;;;22.05;62.47;99207.78;5041421;28;20184;-67
2023/08/03 07:10:24;;;;;;;18.03;1.93;;;;;;;22.02;62.20;99200.84;5029045;28;20648;-67
2023/08/03 07:12:50;;;;;;;7.37;1.47;;;;;;;22.04;62.42;99207.00;5031227;28;20622;-66
2023/08/03 07:15:15;;;;;;;6.87;1.70;;;;;;;22.06;62.38;99226.66;5047964;28;20196;-67
2023/08/03 07:17:41;;;;;;;8.20;1.27;;;;;;;22.06;62.18;99220.91;5048588;28;20710;-67
2023/08/03 07:20:08;;;;;;;6.67;1.40;;;;;;;22.07;62.75;99222.56;5047670;28;20179;-67
2023/08/03 07:22:34;;;;;;;4.73;1.30;;;;;;;22.07;63.23;99231.19;5036412;28;20231;-67
2023/08/03 07:25:00;;;;;;;6.23;1.30;;;;;;;22.06;62.48;99227.50;5028358;28;20496;-66
2023/08/03 07:27:25;;;;;;;9.73;1.40;;;;;;;22.07;62.56;99239.81;5032386;28;20439;-67
2023/08/03 07:29:51;;;;;;;7.20;1.60;;;;;;;22.06;62.19;99239.00;5037710;28;20183;-67
2023/08/03 07:32:16;;;;;;;4.93;1.40;;;;;;;22.04;62.42;99247.25;5050226;28;20176;-67
2023/08/03 07:34:42;;;;;;;6.67;1.60;;;;;;;22.03;62.77;99236.97;5033668;28;20177;-67
2023/08/03 07:37:07;;;;;;;8.40;1.60;;;;;;;22.03;62.66;99239.84;5038588;28;20183;-67
2023/08/03 07:39:33;;;;;;;3.27;1.10;;;;;;;22.04;63.14;99224.25;5048821;28;20183;-67
2023/08/03 07:41:58;;;;;;;6.23;1.67;;;;;;;22.04;62.20;99218.50;5036790;28;20200;-66
2023/08/03 07:44:24;;;;;;;3.30;1.23;;;;;;;22.05;62.82;99217.25;5043460;28;20196;-66
2023/08/03 07:46:49;;;;;;;5.30;1.30;;;;;;;22.02;62.44;99215.22;5044623;28;20601;-66
2023/08/03 07:49:15;;;;;;;7.80;1.40;;;;;;;22.02;62.63;99217.31;5048518;28;20648;-67
2023/08/03 07:51:40;;;;;;;6.87;1.30;;;;;;;22.03;62.48;99216.84;5046259;28;20283;-67
2023/08/03 07:54:06;;;;;;;3.00;1.07;;;;;;;22.02;62.68;99225.91;5058128;28;20555;-66
2023/08/03 07:56:31;;;;;;;7.73;1.53;;;;;;;22.02;62.31;99226.72;5034774;28;20615;-66
2023/08/03 07:58:57;;;;;;;5.07;1.37;;;;;;;22.02;62.88;99237.41;5027159;28;20227;-67
2023/08/03 08:01:23;;;;;;;4.80;1.40;;;;;;;22.03;62.62;99241.91;5030838;28;20180;-66
2023/08/03 08:03:49;;;;;;;5.10;1.27;;;;;;;22.02;62.77;99232.47;5026717;28;20688;-67
2023/08/03 08:06:17;;;;;;;3.93;0.97;;;;;;;22.01;62.00;99239.47;5009212;28;20750;-66
2023/08/03 08:08:43;;;;;;;6.23;1.63;;;;;;;22.01;62.15;99245.22;5028864;28;20454;-66
2023/08/03 08:11:08;;;;;;;3.40;1.03;;;;;;;22.00;62.67;99237.84;5036580;28;20422;-67
2023/08/03 08:13:34;;;;;;;8.03;1.97;;;;;;;22.01;62.06;99250.13;5050138;28;20218;-67
2023/08/03 08:16:00;;;;;;;4.00;1.20;;;;;;;22.00;62.46;99240.72;5045318;28;20237;-67
2023/08/03 08:18:28;;;;;;;3.33;1.07;;;;;;;21.99;62.44;99244.84;5043046;28;20183;-65
2023/08/03 08:20:55;;;;;;;5.00;1.40;;;;;;;21.99;62.79;99244.00;5028917;28;20420;-67
2023/08/03 08:23:20;;;;;;;4.13;1.37;;;;;;;21.99;62.94;99247.72;5027514;28;20443;-66
2023/08/03 08:25:46;;;;;;;3.07;1.20;;;;;;;21.99;62.30;99247.72;5029258;28;20467;-67
2023/08/03 08:28:11;;;;;;;3.87;1.37;;;;;;;21.99;62.63;99256.34;5035607;28;20181;-66
2023/08/03 08:30:37;;;;;;;2.70;1.07;;;;;;;21.99;62.35;99256.34;5030328;28;20274;-67
2023/08/03 08:33:02;;;;;;;6.33;1.23;;;;;;;21.97;62.48;99247.31;5029132;28;20977;-66
2023/08/03 08:35:28;;;;;;;9.60;1.60;;;;;;;21.99;62.88;99255.50;5028324;28;20168;-66
2023/08/03 08:37:53;;;;;;;5.73;1.80;;;;;;;21.99;62.72;99264.97;5041383;28;20186;-65
2023/08/03 08:40:18;;;;;;;5.27;1.30;;;;;;;21.99;62.73;99261.25;5041325;28;20176;-67
2023/08/03 08:42:51;;;;;;;5.60;1.80;;;;;;;21.97;62.88;99267.44;5038968;28;20749;-66
2023/08/03 08:45:16;;;;;;;2.73;1.27;;;;;;;21.96;62.49;99268.69;5033387;28;20200;-67
2023/08/03 08:47:42;;;;;;;3.53;1.10;;;;;;;21.95;62.97;99267.06;5037614;28;20426;-67
2023/08/03 08:50:07;;;;;;;6.77;1.43;;;;;;;21.95;62.93;99277.72;5028366;28;20212;-67
2023/08/03 08:52:33;;;;;;;4.73;1.20;;;;;;;21.96;63.06;99283.06;5030865;28;20180;-67
2023/08/03 08:55:15;;;;;;;4.53;1.50;;;;;;;21.94;62.94;99288.44;5035382;28;20650;-66
2023/08/03 08:57:40;;;;;;;5.03;1.47;;;;;;;21.93;62.40;99286.78;5029651;28;20184;-67
2023/08/03 09:00:07;;;;;;;5.00;1.40;;;;;;;21.94;62.56;99294.19;5027690;28;20504;-65
2023/08/03 09:02:32;;;;;;;3.70;1.20;;;;;;;21.93;62.32;99289.66;5017445;28;20271;-67
2023/08/03 09:05:12;;;;;;;5.00;1.47;;;;;;;21.93;62.51;99286.78;5049413;28;20461;-67
2023/08/03 09:07:38;;;;;;;4.70;1.03;;;;;;;21.93;62.55;99291.72;5050249;28;20523;-65
2023/08/03 09:10:04;;;;;;;5.80;1.63;;;;;;;21.93;62.97;99298.28;5048393;28;20418;-67
2023/08/03 09:12:29;;;;;;;4.33;1.17;;;;;;;21.93;62.44;99298.28;5045200;28;20180;-65
2023/08/03 09:14:58;;;;;;;3.70;1.13;;;;;;;21.94;63.22;99310.59;5046826;28;20967;-67
2023/08/03 09:17:23;;;;;;;4.80;1.20;;;;;;;21.92;62.86;99305.25;5039778;28;20358;-66
2023/08/03 09:19:49;;;;;;;4.27;1.43;;;;;;;21.92;62.90;99316.75;5034508;28;20956;-67
2023/08/03 09:22:15;;;;;;;5.10;1.13;;;;;;;21.92;62.92;99316.75;5031920;28;20234;-66
2023/08/03 09:24:41;;;;;;;5.33;1.33;;;;;;;21.92;63.16;99318.84;5045836;28;20219;-67
2023/08/03 09:27:06;;;;;;;3.63;1.27;;;;;;;21.91;63.01;99309.38;5047483;28;20438;-65
2023/08/03 09:29:32;;;;;;;4.50;1.00;;;;;;;21.92;63.31;99325.38;5049133;28;20273;-67
2023/08/03 09:32:04;;;;;;;4.50;1.50;;;;;;;21.92;63.42;99325.38;5039420;28;20176;-67
2023/08/03 09:34:42;;;;;;;2.60;0.90;;;;;;;21.93;63.39;99334.84;5041840;28;20187;-66
2023/08/03 09:37:08;;;;;;;5.20;1.20;;;;;;;21.91;63.81;99323.75;5034059;28;20500;-66
2023/08/03 09:39:36;;;;;;;5.53;1.03;;;;;;;21.92;63.34;99331.13;5035342;28;20413;-67
2023/08/03 09:42:05;;;;;;;3.83;0.67;;;;;;;21.91;62.71;99329.50;5042476;28;20275;-67
2023/08/03 09:44:33;;;;;;;3.93;0.97;;;;;;;21.90;63.23;99333.63;5037623;28;20528;-66
2023/08/03 09:47:00;;;;;;;6.43;1.20;;;;;;;21.90;63.05;99333.63;5047796;28;20488;-67
2023/08/03 09:49:26;;;;;;;4.70;1.30;;;;;;;21.91;63.87;99332.38;5049180;28;20438;-67
2023/08/03 09:51:53;;;;;;;3.80;1.13;;;;;;;21.91;63.66;99340.16;5034721;28;20462;-67
2023/08/03 09:54:27;;;;;;;4.70;1.13;;;;;;;21.90;63.38;99339.38;5043137;28;20181;-67
2023/08/03 09:56:54;;;;;;;2.70;1.00;;;;;;;21.89;63.53;99340.63;5047993;28;20420;-67
2023/08/03 09:59:32;;;;;;;3.00;0.90;;;;;;;21.89;63.10;99343.50;5045158;28;20446;-67
2023/08/03 10:01:58;;;;;;;5.27;1.30;;;;;;;21.89;64.12;99348.41;5028263;28;20437;-66
2023/08/03 10:04:24;;;;;;;4.87;1.20;;;;;;;21.89;63.84;99352.13;5044151;28;20445;-67
2023/08/03 10:06:50;;;;;;;4.90;1.27;;;;;;;21.88;63.17;99346.78;5048224;28;20456;-67
2023/08/03 10:09:18;;;;;;;4.97;1.23;;;;;;;21.88;63.34;99352.53;5044098;28;20184;-67
2023/08/03 10:11:46;;;;;;;5.40;1.40;;;;;;;21.89;64.02;99354.16;5029870;28;20422;-67
2023/08/03 10:14:12;;;;;;;4.23;1.00;;;;;;;21.88;64.02;99359.09;5031223;28;20446;-67
2023/08/03 10:16:37;;;;;;;5.23;1.30;;;;;;;21.88;63.80;99353.34;5045911;28;20446;-67
2023/08/03 10:19:03;;;;;;;2.73;0.90;;;;;;;21.88;64.03;99358.28;5031124;28;20184;-67
2023/08/03 10:21:29;;;;;;;5.20;1.00;;;;;;;21.87;63.73;99357.47;5035222;28;20195;-65
2023/08/03 10:24:17;;;;;;;3.87;1.20;;;;;;;21.87;64.11;99360.34;5039350;28;20254;-67
2023/08/03 10:26:43;;;;;;;5.13;1.30;;;;;;;21.88;64.07;99358.28;5031854;28;20196;-67
2023/08/03 10:29:09;;;;;;;3.47;0.90;;;;;;;21.88;63.53;99359.09;5039348;28;20473;-67
2023/08/03 10:31:54;;;;;;;4.13;1.33;;;;;;;21.86;63.39;99355.84;5030913;28;20415;-67
2023/08/03 10:34:26;;;;;;;4.60;1.13;;;;;;;21.88;63.99;99364.84;5030640;28;20171;-67
2023/08/03 10:36:53;;;;;;;3.30;1.20;;;;;;;21.88;63.88;99369.78;5033013;28;20877;-67
2023/08/03 10:39:53;;;;;;;5.93;1.50;;;;;;;21.87;63.87;99356.66;5048688;28;20435;-67
2023/08/03 10:42:23;;;;;;;5.63;1.43;;;;;;;21.88;63.73;99358.28;5050080;28;20513;-67
2023/08/03 10:44:48;;;;;;;4.27;1.03;;;;;;;21.88;63.41;99376.31;5038563;28;20457;-67
2023/08/03 10:47:24;;;;;;;5.27;1.10;;;;;;;21.88;63.29;99372.66;5043882;28;20423;-67
2023/08/03 10:49:50;;;;;;;2.90;0.90;;;;;;;21.88;63.27;99369.78;5040682;28;20233;-66
2023/08/03 10:52:37;;;;;;;5.00;1.07;;;;;;;21.87;63.53;99368.97;5036373;28;20578;-66
2023/08/03 10:55:24;;;;;;;2.47;1.03;;;;;;;21.88;63.77;99364.84;5035256;28;20427;-67
2023/08/03 10:57:49;;;;;;;5.37;1.20;;;;;;;21.87;63.62;99368.16;5045893;28;20484;-67
2023/08/03 11:00:15;;;;;;;2.43;1.00;;;;;;;21.87;63.46;99363.22;5028597;28;20415;-66
2023/08/03 11:02:42;;;;;;;3.83;0.93;;;;;;;21.86;63.18;99375.94;5011181;28;20244;-66
2023/08/03 11:05:10;;;;;;;2.93;0.80;;;;;;;21.85;63.84;99371.44;5029529;28;20470;-67
2023/08/03 11:07:36;;;;;;;3.43;0.97;;;;;;;21.86;62.96;99375.13;5032148;28;20464;-67
2023/08/03 11:10:03;;;;;;;2.57;0.90;;;;;;;21.85;63.93;99377.19;5028547;28;20470;-67
2023/08/03 11:12:28;;;;;;;2.47;1.00;;;;;;;21.86;62.90;99378.81;5030181;28;20502;-67
2023/08/03 11:14:55;;;;;;;6.93;0.90;;;;;;;21.85;63.33;99376.38;5031021;28;20495;-67
2023/08/03 11:17:22;;;;;;;3.50;0.93;;;;;;;21.86;63.03;99383.75;5030078;28;20172;-67
2023/08/03 11:19:48;;;;;;;2.53;0.80;;;;;;;21.84;62.70;99381.31;5029779;28;20435;-67
2023/08/03 11:22:13;;;;;;;2.73;1.00;;;;;;;21.86;63.55;99389.50;5033130;28;20434;-67
2023/08/03 11:24:39;;;;;;;4.27;1.27;;;;;;;21.85;63.77;99377.19;5048885;28;20817;-67
2023/08/03 11:27:05;;;;;;;1.67;0.53;;;;;;;21.84;63.05;99381.31;5049032;28;20192;-66
2023/08/03 11:29:33;;;;;;;4.13;0.93;;;;;;;21.83;62.39;99391.16;5044554;28;20633;-67
2023/08/03 11:31:59;;;;;;;4.30;0.93;;;;;;;21.85;62.62;99393.63;5048320;28;20194;-66